createdAt,value
2023-01-19T00:00:41.355Z,2.95
2023-01-19T00:01:52.879Z,4.40
2023-01-19T00:03:04.840Z,3.50
2023-01-19T00:04:16.371Z,3.05
2023-01-19T00:05:27.794Z,3.37
2023-01-19T00:06:39.217Z,3.93
2023-01-19T00:07:50.652Z,3.80
2023-01-19T00:09:02.210Z,4.33
2023-01-19T00:10:13.679Z,5.13
2023-01-19T00:11:25.246Z,3.05
2023-01-19T00:12:36.679Z,4.80
2023-01-19T00:13:51.240Z,3.20
2023-01-19T00:15:02.812Z,3.20
2023-01-19T00:16:17.472Z,3.57
2023-01-19T00:17:28.975Z,3.15
2023-01-19T00:18:40.417Z,4.50
2023-01-19T00:19:51.878Z,3.97
2023-01-19T00:21:03.340Z,4.00
2023-01-19T00:22:14.831Z,4.33
2023-01-19T00:23:26.304Z,4.47
2023-01-19T00:24:37.746Z,4.13
2023-01-19T00:25:51.141Z,4.40
2023-01-19T00:27:04.011Z,2.50
2023-01-19T00:28:16.219Z,3.33
2023-01-19T00:29:30.855Z,3.67
2023-01-19T00:30:42.656Z,4.75
2023-01-19T00:31:54.101Z,3.10
2023-01-19T00:33:05.742Z,4.13
2023-01-19T00:34:17.334Z,4.35
2023-01-19T00:35:29.791Z,3.25
2023-01-19T00:36:41.614Z,2.50
2023-01-19T00:37:53.101Z,3.78
2023-01-19T00:39:04.523Z,3.50
2023-01-19T00:40:16.188Z,4.05
2023-01-19T00:41:46.310Z,4.07
2023-01-19T00:42:58.109Z,4.32
2023-01-19T00:44:10.228Z,3.78
2023-01-19T00:45:22.843Z,4.68
2023-01-19T00:46:34.377Z,3.20
2023-01-19T00:47:46.446Z,3.92
2023-01-19T00:48:57.942Z,3.00
2023-01-19T00:50:11.757Z,3.65
2023-01-19T00:51:23.208Z,3.65
2023-01-19T00:52:34.745Z,3.63
2023-01-19T00:53:46.194Z,3.53
2023-01-19T00:54:57.620Z,3.50
2023-01-19T00:56:09.036Z,4.28
2023-01-19T00:57:20.511Z,4.82
2023-01-19T00:58:32.040Z,3.30
2023-01-19T00:59:43.515Z,3.33
2023-01-19T01:00:57.893Z,4.00
2023-01-19T01:02:09.500Z,4.13
2023-01-19T01:03:21.054Z,3.63
2023-01-19T01:04:32.602Z,3.27
2023-01-19T01:05:44.101Z,2.40
2023-01-19T01:06:55.520Z,3.63
2023-01-19T01:08:06.985Z,2.90
2023-01-19T01:09:18.498Z,2.87
2023-01-19T01:10:30.957Z,4.13
2023-01-19T01:11:42.793Z,3.53
2023-01-19T01:12:57.797Z,3.85
2023-01-19T01:14:11.703Z,3.20
2023-01-19T01:15:23.299Z,2.95
2023-01-19T01:16:35.186Z,5.07
2023-01-19T01:17:49.507Z,3.27
2023-01-19T01:19:01.027Z,2.73
2023-01-19T01:20:16.521Z,3.33
2023-01-19T01:21:28.150Z,4.35
2023-01-19T01:22:39.588Z,3.70
2023-01-19T01:23:51.079Z,3.77
2023-01-19T01:25:02.507Z,4.17
2023-01-19T01:26:13.987Z,4.72
2023-01-19T01:27:25.529Z,3.88
2023-01-19T01:28:37.043Z,3.70
2023-01-19T01:29:48.563Z,3.73
2023-01-19T01:31:00.027Z,3.17
2023-01-19T01:32:11.469Z,4.13
2023-01-19T01:33:40.834Z,3.72
2023-01-19T01:34:53.051Z,5.43
2023-01-19T01:36:04.902Z,3.77
2023-01-19T01:37:16.324Z,2.72
2023-01-19T01:38:27.764Z,2.47
2023-01-19T01:39:39.237Z,3.70
2023-01-19T01:40:50.793Z,3.80
2023-01-19T01:42:02.627Z,4.93
2023-01-19T01:43:15.108Z,2.63
2023-01-19T01:44:49.917Z,2.53
2023-01-19T01:46:01.544Z,3.50
2023-01-19T01:47:13.087Z,3.90
2023-01-19T01:48:27.058Z,3.40
2023-01-19T01:49:38.483Z,2.50
2023-01-19T01:51:24.962Z,3.97
2023-01-19T01:52:39.512Z,4.03
2023-01-19T01:54:10.702Z,4.05
2023-01-19T01:55:23.261Z,3.92
2023-01-19T01:56:42.603Z,3.92
2023-01-19T01:57:57.495Z,3.25
2023-01-19T01:59:11.494Z,3.50
2023-01-19T02:00:23.791Z,3.40
2023-01-19T02:01:54.405Z,4.78
2023-01-19T02:03:07.111Z,3.47
2023-01-19T02:04:18.843Z,5.00
2023-01-19T02:05:33.561Z,3.95
2023-01-19T02:07:03.315Z,4.03
2023-01-19T02:08:38.551Z,3.95
2023-01-19T02:10:08.803Z,4.57
2023-01-19T02:11:39.212Z,3.63
2023-01-19T02:13:09.623Z,3.58
2023-01-19T02:14:21.219Z,3.97
2023-01-19T02:15:32.662Z,5.30
2023-01-19T02:16:44.214Z,3.55
2023-01-19T02:17:58.541Z,3.72
2023-01-19T02:19:13.597Z,4.28
2023-01-19T02:20:27.718Z,3.60
2023-01-19T02:22:02.100Z,4.47
2023-01-19T02:23:17.032Z,3.88
2023-01-19T02:24:29.350Z,4.18
2023-01-19T02:25:40.842Z,3.95
2023-01-19T02:26:52.364Z,3.85
2023-01-19T02:28:04.275Z,4.63
2023-01-19T02:29:19.912Z,3.72
2023-01-19T02:30:32.993Z,5.03
2023-01-19T02:31:48.198Z,4.72
2023-01-19T02:33:00.072Z,3.58
2023-01-19T02:34:12.813Z,3.92
2023-01-19T02:35:24.675Z,6.25
2023-01-19T02:36:42.060Z,3.47
2023-01-19T02:37:54.113Z,2.80
2023-01-19T02:39:06.217Z,5.07
2023-01-19T02:40:20.199Z,4.93
2023-01-19T02:41:34.372Z,5.03
2023-01-19T02:42:50.157Z,4.20
2023-01-19T02:44:02.015Z,4.65
2023-01-19T02:45:14.748Z,4.47
2023-01-19T02:46:26.209Z,3.83
2023-01-19T02:47:39.102Z,4.72
2023-01-19T02:48:50.866Z,4.60
2023-01-19T02:50:02.309Z,4.07
2023-01-19T02:51:26.205Z,3.78
2023-01-19T02:52:37.629Z,4.55
2023-01-19T02:54:04.141Z,5.53
2023-01-19T02:55:20.659Z,4.07
2023-01-19T02:56:47.090Z,4.55
2023-01-19T02:58:04.645Z,2.60
2023-01-19T02:59:31.589Z,3.33
2023-01-19T03:00:47.956Z,4.53
2023-01-19T03:02:18.523Z,5.22
2023-01-19T03:03:35.399Z,3.75
2023-01-19T03:04:57.058Z,3.92
2023-01-19T03:06:10.986Z,4.22
2023-01-19T03:07:47.238Z,4.70
2023-01-19T03:09:04.360Z,3.53
2023-01-19T03:10:20.450Z,5.38
2023-01-19T03:11:35.179Z,3.88
2023-01-19T03:12:50.218Z,4.32
2023-01-19T03:14:06.362Z,4.78
2023-01-19T03:15:20.471Z,4.82
2023-01-19T03:16:34.628Z,5.05
2023-01-19T03:17:48.811Z,4.30
2023-01-19T03:19:06.027Z,3.55
2023-01-19T03:20:20.008Z,3.55
2023-01-19T03:21:34.219Z,3.47
2023-01-19T03:22:49.218Z,4.95
2023-01-19T03:24:03.108Z,4.88
2023-01-19T03:25:15.378Z,3.85
2023-01-19T03:26:29.861Z,3.20
2023-01-19T03:27:42.217Z,3.65
2023-01-19T03:28:55.782Z,5.15
2023-01-19T03:30:07.726Z,4.75
2023-01-19T03:31:24.019Z,3.78
2023-01-19T03:32:41.208Z,4.65
2023-01-19T03:33:58.471Z,3.72
2023-01-19T03:35:11.822Z,2.92
2023-01-19T03:36:34.903Z,3.80
2023-01-19T03:37:48.645Z,5.38
2023-01-19T03:39:01.333Z,3.22
2023-01-19T03:40:12.935Z,4.05
2023-01-19T03:41:25.972Z,3.95
2023-01-19T03:42:38.353Z,3.60
2023-01-19T03:43:52.039Z,3.80
2023-01-19T03:45:03.750Z,3.25
2023-01-19T03:46:17.708Z,5.38
2023-01-19T03:47:29.307Z,3.63
2023-01-19T03:48:41.858Z,3.95
2023-01-19T03:49:54.259Z,3.80
2023-01-19T03:51:07.737Z,5.53
2023-01-19T03:52:26.209Z,5.07
2023-01-19T03:53:37.642Z,5.00
2023-01-19T03:54:49.330Z,3.22
2023-01-19T03:56:00.889Z,3.85
2023-01-19T03:57:12.933Z,3.38
2023-01-19T03:58:24.634Z,3.95
2023-01-19T03:59:36.403Z,4.30
2023-01-19T04:00:47.919Z,4.22
2023-01-19T04:01:59.470Z,6.80
2023-01-19T04:03:13.146Z,4.32
2023-01-19T04:04:25.647Z,3.88
2023-01-19T04:05:37.760Z,3.80
2023-01-19T04:06:49.242Z,4.35
2023-01-19T04:08:00.761Z,4.63
2023-01-19T04:09:12.187Z,4.20
2023-01-19T04:10:23.708Z,3.20
2023-01-19T04:11:35.276Z,4.97
2023-01-19T04:12:47.089Z,4.35
2023-01-19T04:13:58.574Z,4.03
2023-01-19T04:15:10.045Z,2.95
2023-01-19T04:16:21.587Z,3.80
2023-01-19T04:17:33.268Z,3.70
2023-01-19T04:18:44.740Z,2.95
2023-01-19T04:19:56.242Z,2.95
2023-01-19T04:21:07.923Z,6.20
2023-01-19T04:22:19.337Z,5.45
2023-01-19T04:23:31.024Z,4.35
2023-01-19T04:24:42.466Z,5.95
2023-01-19T04:26:00.641Z,5.45
2023-01-19T04:27:12.077Z,5.20
2023-01-19T04:28:23.530Z,5.63
2023-01-19T04:29:34.926Z,3.30
2023-01-19T04:30:49.593Z,3.85
2023-01-19T04:32:01.123Z,5.40
2023-01-19T04:33:12.674Z,4.65
2023-01-19T04:34:24.106Z,4.43
2023-01-19T04:35:35.764Z,4.45
2023-01-19T04:36:47.219Z,4.90
2023-01-19T04:37:58.745Z,4.70
2023-01-19T04:39:11.718Z,4.35
2023-01-19T04:40:23.147Z,4.43
2023-01-19T04:41:34.630Z,3.63
2023-01-19T04:42:46.516Z,5.63
2023-01-19T04:43:57.976Z,6.85
2023-01-19T04:45:09.673Z,7.53
2023-01-19T04:46:21.207Z,6.50
2023-01-19T04:47:32.769Z,5.68
2023-01-19T04:48:44.195Z,4.82
2023-01-19T04:49:55.697Z,5.50
2023-01-19T04:51:07.172Z,4.10
2023-01-19T04:52:18.668Z,5.85
2023-01-19T04:53:30.103Z,6.13
2023-01-19T04:54:41.563Z,5.63
2023-01-19T04:55:54.033Z,3.92
2023-01-19T04:57:05.481Z,4.03
2023-01-19T04:58:16.954Z,4.45
2023-01-19T04:59:28.368Z,6.75
2023-01-19T05:00:39.895Z,6.03
2023-01-19T05:01:51.403Z,3.88
2023-01-19T05:03:03.290Z,5.72
2023-01-19T05:04:15.050Z,4.57
2023-01-19T05:05:27.454Z,7.05
2023-01-19T05:06:38.965Z,5.78
2023-01-19T05:07:50.422Z,5.13
2023-01-19T05:09:01.839Z,4.18
2023-01-19T05:10:13.679Z,6.35
2023-01-19T05:11:25.196Z,6.22
2023-01-19T05:12:37.038Z,5.13
2023-01-19T05:13:50.225Z,6.93
2023-01-19T05:15:02.389Z,5.30
2023-01-19T05:16:14.147Z,7.20
2023-01-19T05:17:25.635Z,4.93
2023-01-19T05:18:37.246Z,4.97
2023-01-19T05:19:49.058Z,4.00
2023-01-19T05:21:01.437Z,5.68
2023-01-19T05:22:12.924Z,6.88
2023-01-19T05:23:24.428Z,5.95
2023-01-19T05:24:35.886Z,6.13
2023-01-19T05:25:47.514Z,7.03
2023-01-19T05:26:58.972Z,6.07
2023-01-19T05:28:10.877Z,4.65
2023-01-19T05:29:22.348Z,5.05
2023-01-19T05:30:34.197Z,4.88
2023-01-19T05:31:45.883Z,4.68
2023-01-19T05:32:57.392Z,5.47
2023-01-19T05:34:10.962Z,4.03
2023-01-19T05:35:31.277Z,6.57
2023-01-19T05:36:46.900Z,5.53
2023-01-19T05:37:58.355Z,5.85
2023-01-19T05:39:09.846Z,5.47
2023-01-19T05:40:21.706Z,6.72
2023-01-19T05:41:33.236Z,4.93
2023-01-19T05:42:44.716Z,5.82
2023-01-19T05:43:56.348Z,5.63
2023-01-19T05:45:08.118Z,6.95
2023-01-19T05:46:19.589Z,5.00
2023-01-19T05:47:31.178Z,5.40
2023-01-19T05:48:42.613Z,5.88
2023-01-19T05:49:54.033Z,7.43
2023-01-19T05:51:05.573Z,7.00
2023-01-19T05:52:17.140Z,4.22
2023-01-19T05:53:28.830Z,6.07
2023-01-19T05:54:40.550Z,3.75
2023-01-19T05:55:52.115Z,5.38
2023-01-19T05:57:04.926Z,5.07
2023-01-19T05:58:16.962Z,4.38
2023-01-19T05:59:28.541Z,4.30
2023-01-19T06:00:40.057Z,5.05
2023-01-19T06:01:51.933Z,3.83
2023-01-19T06:03:04.277Z,4.78
2023-01-19T06:04:15.889Z,4.90
2023-01-19T06:05:27.621Z,4.35
2023-01-19T06:06:39.102Z,3.72
2023-01-19T06:07:50.559Z,4.38
2023-01-19T06:09:02.047Z,4.32
2023-01-19T06:10:13.541Z,3.88
2023-01-19T06:11:26.119Z,5.25
2023-01-19T06:12:39.579Z,4.22
2023-01-19T06:13:51.143Z,4.97
2023-01-19T06:15:02.602Z,5.10
2023-01-19T06:16:14.594Z,4.28
2023-01-19T06:17:26.048Z,5.70
2023-01-19T06:18:37.712Z,5.32
2023-01-19T06:19:49.194Z,5.15
2023-01-19T06:21:08.425Z,3.65
2023-01-19T06:22:19.889Z,5.10
2023-01-19T06:23:31.982Z,6.18
2023-01-19T06:24:43.458Z,4.90
2023-01-19T06:25:54.947Z,3.97
2023-01-19T06:27:06.685Z,4.57
2023-01-19T06:28:18.227Z,5.57
2023-01-19T06:29:29.682Z,5.28
2023-01-19T06:30:41.139Z,6.15
2023-01-19T06:31:52.731Z,5.50
2023-01-19T06:33:04.264Z,5.90
2023-01-19T06:34:15.728Z,5.70
2023-01-19T06:35:27.377Z,5.97
2023-01-19T06:36:38.957Z,7.60
2023-01-19T06:37:51.003Z,4.88
2023-01-19T06:39:05.637Z,5.28
2023-01-19T06:40:17.267Z,5.32
2023-01-19T06:41:29.771Z,4.82
2023-01-19T06:42:41.244Z,3.83
2023-01-19T06:43:52.734Z,5.35
2023-01-19T06:45:04.528Z,9.00
2023-01-19T06:46:16.020Z,11.60
2023-01-19T06:47:27.522Z,16.63
2023-01-19T06:48:39.334Z,13.77
2023-01-19T06:49:50.849Z,10.40
2023-01-19T06:51:02.301Z,8.10
2023-01-19T06:52:17.556Z,6.30
2023-01-19T06:53:30.211Z,4.60
2023-01-19T06:54:43.498Z,6.75
2023-01-19T06:56:01.439Z,8.00
2023-01-19T06:57:13.943Z,12.68
2023-01-19T06:58:25.403Z,17.77
2023-01-19T06:59:36.803Z,12.68
2023-01-19T07:00:50.446Z,4.97
2023-01-19T07:02:26.370Z,5.32
2023-01-19T07:03:34.083Z,7.60
2023-01-19T07:04:45.933Z,5.95
2023-01-19T07:05:57.614Z,3.85
2023-01-19T07:07:09.145Z,4.95
2023-01-19T07:08:20.818Z,5.75
2023-01-19T07:09:32.286Z,5.93
2023-01-19T07:11:25.888Z,6.70
2023-01-19T07:12:15.392Z,9.25
2023-01-19T07:13:27.219Z,5.70
2023-01-19T07:14:38.779Z,5.32
2023-01-19T07:15:50.286Z,6.95
2023-01-19T07:17:03.060Z,5.28
2023-01-19T07:18:14.966Z,5.53
2023-01-19T07:19:26.394Z,4.60
2023-01-19T07:20:37.941Z,7.77
2023-01-19T07:21:49.375Z,4.30
2023-01-19T07:23:01.382Z,4.60
2023-01-19T07:24:13.206Z,5.05
2023-01-19T07:25:24.729Z,5.85
2023-01-19T07:26:36.164Z,5.33
2023-01-19T07:27:47.624Z,5.27
2023-01-19T07:28:59.067Z,4.90
2023-01-19T07:30:10.821Z,6.82
2023-01-19T07:31:22.494Z,5.68
2023-01-19T07:32:34.221Z,5.80
2023-01-19T07:33:46.022Z,5.53
2023-01-19T07:34:57.509Z,3.30
2023-01-19T07:36:09.397Z,5.50
2023-01-19T07:37:21.044Z,5.43
2023-01-19T07:38:32.864Z,6.37
2023-01-19T07:39:44.365Z,6.23
2023-01-19T07:41:02.667Z,5.33
2023-01-19T07:42:14.352Z,7.83
2023-01-19T07:43:26.052Z,5.40
2023-01-19T07:44:37.576Z,6.53
2023-01-19T07:45:49.096Z,6.27
2023-01-19T07:47:00.516Z,5.93
2023-01-19T07:48:12.034Z,8.73
2023-01-19T07:49:23.494Z,7.43
2023-01-19T07:50:34.969Z,11.60
2023-01-19T07:51:46.567Z,11.03
2023-01-19T07:52:58.285Z,5.17
2023-01-19T07:54:09.952Z,11.27
2023-01-19T07:55:21.556Z,13.98
2023-01-19T07:56:33.914Z,9.60
2023-01-19T07:57:47.804Z,6.00
2023-01-19T07:58:59.220Z,6.93
2023-01-19T08:00:11.214Z,5.03
2023-01-19T08:01:22.797Z,6.73
2023-01-19T08:02:36.049Z,7.40
2023-01-19T08:03:47.921Z,6.03
2023-01-19T08:04:59.441Z,5.63
2023-01-19T08:06:18.366Z,6.17
2023-01-19T08:07:29.941Z,3.97
2023-01-19T08:08:41.716Z,4.63
2023-01-19T08:09:53.211Z,4.53
2023-01-19T08:11:04.740Z,6.00
2023-01-19T08:12:17.206Z,5.07
2023-01-19T08:13:28.706Z,5.23
2023-01-19T08:14:40.189Z,4.47
2023-01-19T08:15:53.070Z,4.10
2023-01-19T08:17:04.518Z,6.60
2023-01-19T08:18:15.985Z,6.70
2023-01-19T08:19:27.592Z,4.20
2023-01-19T08:20:39.216Z,5.90
2023-01-19T08:21:50.667Z,5.80
2023-01-19T08:23:03.036Z,5.77
2023-01-19T08:24:19.526Z,6.23
2023-01-19T08:25:34.286Z,6.10
2023-01-19T08:26:45.832Z,4.70
2023-01-19T08:27:57.303Z,5.13
2023-01-19T08:29:08.786Z,5.60
2023-01-19T08:30:20.662Z,4.23
2023-01-19T08:31:32.249Z,4.70
2023-01-19T08:32:43.757Z,4.77
2023-01-19T08:33:55.325Z,4.43
2023-01-19T08:35:07.047Z,4.23
2023-01-19T08:36:19.039Z,4.80
2023-01-19T08:37:31.279Z,3.67
2023-01-19T08:38:47.071Z,4.33
2023-01-19T08:39:58.482Z,5.83
2023-01-19T08:41:10.267Z,4.93
2023-01-19T08:42:21.735Z,5.60
2023-01-19T08:43:35.347Z,5.60
2023-01-19T08:44:57.680Z,5.47
2023-01-19T08:46:09.882Z,6.10
2023-01-19T08:47:21.347Z,3.30
2023-01-19T08:48:32.978Z,4.03
2023-01-19T08:49:44.431Z,4.97
2023-01-19T08:50:55.962Z,4.40
2023-01-19T08:52:07.548Z,4.43
2023-01-19T08:53:21.070Z,3.90
2023-01-19T08:54:32.577Z,4.90
2023-01-19T08:55:44.007Z,4.60
2023-01-19T08:56:55.651Z,4.33
2023-01-19T08:58:09.482Z,5.57
2023-01-19T08:59:21.100Z,5.67
2023-01-19T09:00:34.380Z,4.87
2023-01-19T09:01:46.074Z,5.47
2023-01-19T09:02:57.879Z,3.87
2023-01-19T09:04:09.686Z,4.20
2023-01-19T09:05:21.224Z,4.00
2023-01-19T09:06:32.943Z,3.23
2023-01-19T09:07:46.492Z,4.87
2023-01-19T09:08:58.127Z,4.77
2023-01-19T09:10:10.473Z,5.13
2023-01-19T09:11:22.043Z,4.33
2023-01-19T09:12:33.572Z,4.77
2023-01-19T09:13:45.181Z,4.60
2023-01-19T09:14:56.732Z,6.10
2023-01-19T09:16:09.149Z,3.67
2023-01-19T09:17:20.648Z,4.07
2023-01-19T09:18:32.096Z,5.93
2023-01-19T09:19:43.690Z,4.77
2023-01-19T09:20:57.196Z,4.73
2023-01-19T09:22:08.664Z,4.77
2023-01-19T09:23:20.314Z,3.77
2023-01-19T09:24:31.897Z,5.97
2023-01-19T09:25:44.758Z,3.57
2023-01-19T09:26:56.207Z,3.47
2023-01-19T09:28:09.324Z,4.40
2023-01-19T09:29:20.794Z,3.43
2023-01-19T09:30:33.241Z,4.43
2023-01-19T09:31:45.723Z,4.30
2023-01-19T09:33:01.316Z,4.70
2023-01-19T09:34:12.848Z,6.53
2023-01-19T09:35:24.296Z,7.00
2023-01-19T09:36:37.342Z,6.17
2023-01-19T09:37:49.166Z,8.40
2023-01-19T09:39:00.723Z,8.50
2023-01-19T09:40:12.577Z,5.90
2023-01-19T09:41:26.121Z,5.57
2023-01-19T09:42:44.905Z,4.70
2023-01-19T09:43:58.049Z,6.83
2023-01-19T09:45:19.058Z,5.53
2023-01-19T09:46:36.935Z,4.07
2023-01-19T09:47:49.708Z,5.00
2023-01-19T09:49:05.028Z,6.33
2023-01-19T09:50:21.005Z,3.70
2023-01-19T09:51:34.859Z,3.60
2023-01-19T09:52:48.814Z,4.77
2023-01-19T09:54:04.858Z,5.17
2023-01-19T09:55:26.942Z,3.17
2023-01-19T09:56:38.629Z,2.80
2023-01-19T09:57:50.136Z,2.80
2023-01-19T09:59:03.117Z,2.87
2023-01-19T10:00:17.900Z,3.63
2023-01-19T10:01:38.137Z,3.67
2023-01-19T10:02:55.930Z,2.30
2023-01-19T10:04:23.759Z,3.30
2023-01-19T10:05:55.489Z,2.20
2023-01-19T10:07:10.042Z,4.00
2023-01-19T10:08:26.436Z,3.10
2023-01-19T10:09:47.822Z,4.20
2023-01-19T10:10:59.647Z,3.57
2023-01-19T10:12:18.450Z,3.80
2023-01-19T10:13:42.461Z,3.10
2023-01-19T10:14:58.107Z,2.57
2023-01-19T10:16:09.571Z,2.90
2023-01-19T10:17:38.644Z,4.93
2023-01-19T10:18:52.026Z,3.33
2023-01-19T10:20:04.953Z,2.00
2023-01-19T10:21:16.422Z,2.10
2023-01-19T10:22:28.625Z,2.83
2023-01-19T10:23:52.327Z,3.00
2023-01-19T10:25:07.680Z,3.60
2023-01-19T10:26:45.343Z,3.97
2023-01-19T10:27:58.166Z,2.67
2023-01-19T10:29:15.249Z,3.20
2023-01-19T10:30:29.007Z,2.30
2023-01-19T10:31:42.377Z,3.53
2023-01-19T10:32:53.936Z,3.03
2023-01-19T10:34:05.575Z,4.40
2023-01-19T10:35:27.136Z,2.57
2023-01-19T10:36:39.895Z,2.70
2023-01-19T10:37:53.012Z,5.83
2023-01-19T10:39:05.833Z,5.40
2023-01-19T10:40:22.271Z,5.50
2023-01-19T10:41:41.931Z,3.33
2023-01-19T10:42:53.526Z,3.13
2023-01-19T10:44:05.929Z,3.20
2023-01-19T10:45:18.994Z,3.70
2023-01-19T10:46:42.530Z,2.90
2023-01-19T10:47:54.715Z,2.77
2023-01-19T10:49:06.705Z,2.00
2023-01-19T10:50:27.387Z,2.07
2023-01-19T10:51:47.167Z,3.60
2023-01-19T10:53:00.295Z,3.40
2023-01-19T10:54:12.617Z,3.67
2023-01-19T10:55:31.343Z,2.80
2023-01-19T10:57:03.478Z,2.33
2023-01-19T10:58:28.608Z,2.80
2023-01-19T10:59:50.992Z,2.30
2023-01-19T11:01:13.507Z,3.33
2023-01-19T11:02:29.457Z,3.43
2023-01-19T11:03:41.093Z,3.57
2023-01-19T11:04:53.906Z,3.10
2023-01-19T11:06:17.697Z,4.53
2023-01-19T11:07:30.713Z,2.83
2023-01-19T11:08:46.077Z,3.57
2023-01-19T11:10:15.709Z,4.03
2023-01-19T11:11:27.252Z,2.83
2023-01-19T11:12:43.169Z,2.47
2023-01-19T11:14:07.408Z,2.60
2023-01-19T11:15:23.406Z,3.20
2023-01-19T11:16:35.251Z,2.97
2023-01-19T11:17:48.449Z,3.17
2023-01-19T11:19:02.099Z,3.87
2023-01-19T11:20:23.577Z,1.83
2023-01-19T11:21:35.130Z,3.00
2023-01-19T11:22:48.793Z,1.80
2023-01-19T11:24:02.400Z,2.70
2023-01-19T11:25:22.032Z,1.70
2023-01-19T11:26:44.300Z,3.50
2023-01-19T11:27:55.767Z,3.23
2023-01-19T11:29:15.571Z,3.70
2023-01-19T11:30:27.175Z,2.97
2023-01-19T11:31:38.720Z,2.90
2023-01-19T11:32:50.290Z,3.03
2023-01-19T11:34:03.126Z,2.37
2023-01-19T11:35:32.153Z,2.73
2023-01-19T11:36:55.049Z,2.03
2023-01-19T11:38:12.436Z,1.47
2023-01-19T11:39:24.984Z,3.43
2023-01-19T11:40:36.484Z,2.07
2023-01-19T11:41:49.864Z,1.80
2023-01-19T11:43:01.760Z,2.77
2023-01-19T11:44:19.509Z,2.13
2023-01-19T11:45:32.767Z,2.40
2023-01-19T11:46:44.908Z,2.53
2023-01-19T11:47:57.203Z,3.07
2023-01-19T11:49:23.752Z,2.90
2023-01-19T11:50:38.991Z,2.40
2023-01-19T11:52:05.143Z,2.27
2023-01-19T11:53:24.383Z,3.13
2023-01-19T11:54:40.586Z,2.77
2023-01-19T11:55:56.951Z,2.23
2023-01-19T11:57:13.681Z,2.67
2023-01-19T11:58:25.863Z,2.10
2023-01-19T11:59:37.297Z,2.10
2023-01-19T12:00:54.490Z,2.10
2023-01-19T12:02:14.066Z,2.50
2023-01-19T12:03:30.674Z,1.90
2023-01-19T12:04:44.428Z,2.20
2023-01-19T12:05:58.295Z,2.53
2023-01-19T12:07:12.215Z,2.40
2023-01-19T12:08:30.078Z,2.77
2023-01-19T12:09:45.271Z,2.70
2023-01-19T12:10:58.797Z,1.67
2023-01-19T12:12:30.803Z,3.00
2023-01-19T12:13:44.089Z,1.80
2023-01-19T12:14:55.520Z,2.30
2023-01-19T12:16:28.588Z,2.13
2023-01-19T12:17:48.844Z,2.10
2023-01-19T12:19:02.646Z,2.53
2023-01-19T12:20:32.471Z,2.23
2023-01-19T12:21:44.507Z,1.80
2023-01-19T12:23:01.749Z,3.27
2023-01-19T12:24:16.484Z,3.70
2023-01-19T12:25:33.323Z,2.30
2023-01-19T12:26:50.902Z,1.93
2023-01-19T12:28:02.887Z,2.40
2023-01-19T12:29:18.295Z,2.80
2023-01-19T12:30:30.402Z,2.43
2023-01-19T12:31:43.275Z,2.23
2023-01-19T12:33:13.458Z,2.67
2023-01-19T12:34:31.158Z,3.20
2023-01-19T12:35:59.748Z,1.67
2023-01-19T12:37:44.613Z,2.90
2023-01-19T12:38:58.959Z,1.97
2023-01-19T12:40:19.508Z,2.60
2023-01-19T12:41:34.011Z,4.50
2023-01-19T12:42:53.941Z,4.03
2023-01-19T12:44:11.556Z,2.00
2023-01-19T12:45:25.643Z,3.97
2023-01-19T12:46:38.221Z,5.87
2023-01-19T12:47:53.219Z,3.00
2023-01-19T12:49:04.676Z,4.93
2023-01-19T12:50:19.297Z,2.80
2023-01-19T12:51:31.149Z,3.63
2023-01-19T12:52:51.637Z,3.27
2023-01-19T12:54:05.395Z,4.03
2023-01-19T12:55:31.169Z,6.50
2023-01-19T12:56:42.745Z,3.50
2023-01-19T12:57:57.385Z,3.73
2023-01-19T12:59:20.327Z,3.33
2023-01-19T13:00:33.605Z,5.93
2023-01-19T13:02:05.070Z,2.90
2023-01-19T13:03:16.596Z,3.53
2023-01-19T13:04:32.018Z,5.13
2023-01-19T13:05:43.411Z,4.30
2023-01-19T13:06:55.398Z,2.93
2023-01-19T13:08:06.961Z,2.60
2023-01-19T13:09:47.864Z,2.30
2023-01-19T13:10:59.352Z,3.97
2023-01-19T13:12:10.835Z,4.33
2023-01-19T13:13:22.269Z,5.53
2023-01-19T13:14:35.260Z,7.97
2023-01-19T13:15:46.831Z,5.20
2023-01-19T13:17:00.421Z,4.10
2023-01-19T13:18:20.027Z,3.90
2023-01-19T13:19:43.096Z,3.60
2023-01-19T13:20:57.229Z,2.73
2023-01-19T13:22:27.230Z,3.07
2023-01-19T13:23:47.522Z,2.07
2023-01-19T13:25:11.357Z,5.57
2023-01-19T13:26:23.711Z,3.13
2023-01-19T13:27:35.565Z,3.77
2023-01-19T13:28:51.636Z,3.23
2023-01-19T13:30:09.789Z,5.73
2023-01-19T13:31:22.111Z,4.00
2023-01-19T13:32:34.011Z,3.50
2023-01-19T13:33:50.305Z,3.87
2023-01-19T13:35:02.537Z,2.77
2023-01-19T13:36:20.630Z,4.50
2023-01-19T13:37:43.096Z,3.33
2023-01-19T13:38:55.555Z,3.57
2023-01-19T13:40:07.476Z,3.77
2023-01-19T13:41:22.016Z,3.03
2023-01-19T13:42:35.817Z,2.77
2023-01-19T13:43:47.814Z,3.03
2023-01-19T13:45:00.845Z,10.00
2023-01-19T13:46:13.515Z,11.30
2023-01-19T13:47:44.205Z,11.60
2023-01-19T13:48:57.965Z,11.03
2023-01-19T13:50:26.924Z,12.53
2023-01-19T13:51:38.416Z,9.43
2023-01-19T13:52:51.491Z,6.37
2023-01-19T13:54:03.294Z,2.97
2023-01-19T13:55:15.853Z,9.07
2023-01-19T13:56:29.003Z,8.13
2023-01-19T13:57:41.519Z,5.87
2023-01-19T13:58:59.846Z,5.20
2023-01-19T14:00:14.527Z,9.80
2023-01-19T14:01:28.863Z,6.37
2023-01-19T14:03:01.080Z,8.67
2023-01-19T14:04:31.770Z,4.03
2023-01-19T14:05:43.872Z,2.17
2023-01-19T14:06:56.993Z,4.60
2023-01-19T14:08:08.509Z,3.30
2023-01-19T14:09:20.349Z,1.83
2023-01-19T14:10:32.741Z,5.30
2023-01-19T14:11:45.389Z,5.83
2023-01-19T14:13:04.376Z,5.00
2023-01-19T14:14:22.776Z,5.30
2023-01-19T14:15:34.803Z,3.17
2023-01-19T14:16:46.342Z,3.30
2023-01-19T14:18:16.275Z,2.47
2023-01-19T14:19:28.640Z,3.07
2023-01-19T14:20:41.113Z,3.80
2023-01-19T14:22:00.195Z,3.07
2023-01-19T14:23:30.463Z,2.97
2023-01-19T14:24:42.439Z,2.37
2023-01-19T14:25:54.234Z,1.90
2023-01-19T14:27:08.864Z,2.23
2023-01-19T14:28:35.689Z,1.40
2023-01-19T14:29:50.480Z,1.90
2023-01-19T14:31:19.524Z,2.93
2023-01-19T14:32:31.673Z,4.83
2023-01-19T14:33:46.147Z,5.10
2023-01-19T14:35:04.258Z,5.33
2023-01-19T14:36:26.780Z,4.13
2023-01-19T14:37:47.227Z,3.83
2023-01-19T14:39:00.357Z,4.13
2023-01-19T14:40:11.847Z,4.87
2023-01-19T14:41:37.722Z,4.97
2023-01-19T14:42:53.543Z,2.57
2023-01-19T14:44:09.005Z,3.87
2023-01-19T14:45:22.231Z,2.60
2023-01-19T14:46:33.815Z,2.60
2023-01-19T14:47:46.125Z,3.17
2023-01-19T14:49:01.868Z,6.70
2023-01-19T14:50:27.534Z,7.93
2023-01-19T14:51:39.009Z,7.67
2023-01-19T14:52:52.959Z,4.83
2023-01-19T14:54:04.993Z,4.27
2023-01-19T14:55:19.326Z,3.57
2023-01-19T14:56:32.510Z,2.10
2023-01-19T14:57:43.993Z,4.03
2023-01-19T14:58:56.380Z,3.40
2023-01-19T15:00:17.439Z,7.37
2023-01-19T15:01:29.277Z,4.07
2023-01-19T15:02:40.899Z,3.40
2023-01-19T15:03:52.365Z,4.00
2023-01-19T15:05:03.856Z,2.47
2023-01-19T15:06:19.857Z,2.60
2023-01-19T15:07:31.437Z,2.10
2023-01-19T15:08:43.448Z,2.60
2023-01-19T15:09:54.879Z,3.33
2023-01-19T15:11:10.739Z,2.77
2023-01-19T15:12:25.205Z,2.13
2023-01-19T15:13:37.309Z,2.57
2023-01-19T15:14:48.792Z,2.60
2023-01-19T15:16:00.293Z,3.07
2023-01-19T15:17:27.222Z,3.77
2023-01-19T15:18:38.967Z,3.13
2023-01-19T15:19:50.487Z,7.97
2023-01-19T15:21:03.111Z,5.27
2023-01-19T15:22:14.905Z,4.77
2023-01-19T15:23:26.397Z,5.13
2023-01-19T15:24:39.696Z,8.73
2023-01-19T15:25:51.561Z,4.83
2023-01-19T15:27:03.181Z,8.70
2023-01-19T15:28:17.393Z,2.97
2023-01-19T15:29:30.120Z,4.80
2023-01-19T15:30:42.565Z,8.93
2023-01-19T15:31:54.174Z,5.53
2023-01-19T15:33:05.869Z,7.30
2023-01-19T15:34:17.451Z,8.30
2023-01-19T15:35:29.019Z,8.23
2023-01-19T15:36:41.110Z,6.40
2023-01-19T15:37:52.588Z,2.40
2023-01-19T15:39:04.119Z,2.90
2023-01-19T15:40:16.461Z,1.80
2023-01-19T15:41:30.139Z,2.43
2023-01-19T15:42:42.120Z,3.40
2023-01-19T15:43:53.681Z,2.50
2023-01-19T15:45:31.794Z,2.50
2023-01-19T15:46:43.286Z,13.70
2023-01-19T15:47:54.737Z,13.30
2023-01-19T15:49:06.368Z,11.37
2023-01-19T15:50:17.991Z,6.23
2023-01-19T15:51:29.494Z,6.13
2023-01-19T15:52:40.965Z,5.63
2023-01-19T15:53:52.937Z,6.10
2023-01-19T15:55:04.582Z,12.40
2023-01-19T15:56:21.147Z,10.40
2023-01-19T15:57:35.089Z,8.23
2023-01-19T15:58:47.028Z,5.80
2023-01-19T15:59:58.580Z,5.87
2023-01-19T16:01:13.169Z,4.87
2023-01-19T16:02:24.829Z,8.03
2023-01-19T16:03:37.978Z,6.70
2023-01-19T16:04:49.647Z,5.67
2023-01-19T16:06:01.777Z,5.70
2023-01-19T16:07:13.726Z,3.30
2023-01-19T16:08:25.892Z,2.83
2023-01-19T16:09:38.013Z,2.33
2023-01-19T16:10:50.013Z,1.90
2023-01-19T16:12:01.813Z,2.10
2023-01-19T16:13:13.247Z,2.53
2023-01-19T16:14:24.795Z,4.57
2023-01-19T16:15:37.165Z,4.13
2023-01-19T16:16:49.693Z,3.87
2023-01-19T16:18:02.024Z,7.53
2023-01-19T16:19:15.424Z,8.53
2023-01-19T16:20:27.036Z,5.10
2023-01-19T16:21:38.965Z,1.80
2023-01-19T16:22:51.019Z,3.43
2023-01-19T16:24:03.129Z,2.90
2023-01-19T16:25:14.712Z,3.00
2023-01-19T16:26:28.333Z,5.07
2023-01-19T16:27:40.042Z,10.37